Flight Track Log - Related Links

Times and Time Zones

All times are in EDT time to prevent confusion due to time zone crossing. See the AWI3778 flight status page for this flight to view local times or setup timezone preferences in your user account.

Time Position Orientation Groundspeed Altitude Reporting Facility
EDT Latitude Longitude Course Direction KTS MPH feet Rate Location/Type
Sat 02:32:22 PM 30.4758 -81.6803 33° Northeast 144 166 600  Level Jacksonville Center
Sat 02:33:05 PM 30.4756 -81.6417 90° East 198 228 1,800 1,732 Climbing Jacksonville Center
Sat 02:33:59 PM 30.5147 -81.6169 29° Northeast 232 267 3,400 2,000 Climbing Jacksonville Center
Sat 02:34:00 PM 30.6176 -81.5324 41° Northeast  Level FlightAware Approximate
Sat 02:34:59 PM 30.5836 -81.6064 North 232 267 5,600  Level Jacksonville Center
Sat 02:35:00 PM 30.6874 -81.4597 44° Northeast  Level FlightAware Approximate
Sat 02:35:59 PM 30.6714 -81.6222 351° North 253 291 8,100  Level Jacksonville Center
Sat 02:36:00 PM 30.7542 -81.3833 44° Northeast  Level FlightAware Approximate
Sat 02:36:59 PM 30.7489 -81.6308 355° North 267 307 10,100  Level Jacksonville Center
Sat 02:37:00 PM 30.8277 -81.3167 33° Northeast  Level FlightAware Approximate
Sat 02:37:59 PM 30.8325 -81.6369 356° North 284 327 12,200  Level Jacksonville Center
Sat 02:38:59 PM 30.9139 -81.6456 355° North 290 334 14,300 1,950 Climbing Jacksonville Center
Sat 02:39:59 PM 31.0014 -81.6250 11° North 296 341 16,100 1,250 Climbing Jacksonville Center
Sat 02:40:59 PM 31.0889 -81.5922 18° North 308 354 16,800 800 Climbing Jacksonville Center
Sat 02:41:59 PM 31.1867 -81.5594 16° North 364 419 17,700 950 Climbing Jacksonville Center
Sat 02:42:59 PM 31.2864 -81.5189 19° North 364 419 18,700 1,100 Climbing Jacksonville Center
Sat 02:43:59 PM 31.3903 -81.4811 17° North 372 428 19,900 1,000 Climbing Jacksonville Center
Sat 02:44:59 PM 31.4900 -81.4431 18° North 379 436 20,700 800 Climbing Jacksonville Center
Sat 02:45:59 PM 31.5858 -81.4097 17° North 379 436 21,500 800 Climbing Jacksonville Center
Sat 02:46:59 PM 31.7003 -81.3689 17° North 384 442 22,300 700 Climbing Jacksonville Center
Sat 02:47:59 PM 31.8061 -81.3281 18° North 389 448 22,900 650 Climbing Jacksonville Center
Sat 02:48:59 PM 31.9142 -81.2869 18° North 399 459 23,600 700 Climbing Jacksonville Center
Sat 02:49:59 PM 32.0200 -81.2461 18° North 399 459 24,300 1,150 Climbing Jacksonville Center
Sat 02:50:59 PM 32.1239 -81.2047 19° North 392 451 25,900 1,600 Climbing Jacksonville Center
Sat 02:51:59 PM 32.2000 -81.1150 45° Northeast 366 421 27,500 1,300 Climbing Jacksonville Center
Sat 02:52:59 PM 32.2594 -81.0303 50° Northeast 371 427 28,500 850 Climbing Jacksonville Center
Sat 02:53:59 PM 32.3286 -80.9233 53° Northeast 371 427 29,200 700 Climbing Jacksonville Center
Sat 02:54:59 PM 32.3919 -80.8258 52° Northeast 376 433 29,900 650 Climbing Jacksonville Center
Sat 02:55:59 PM 32.4569 -80.7211 54° Northeast 382 440 30,500 550 Climbing Jacksonville Center
Sat 02:56:59 PM 32.5219 -80.6211 52° Northeast 382 440 31,000 250 Climbing Jacksonville Center
Sat 02:57:59 PM 32.5911 -80.5231 50° Northeast 387 445 31,000 -50 Level Jacksonville Center
Sat 02:58:59 PM 32.6817 -80.4564 32° Northeast 376 433 30,900  Descending Jacksonville Center
Sat 02:59:59 PM 32.7722 -80.3922 31° Northeast 376 433 31,000 50 Climbing Jacksonville Center
Sat 03:00:59 PM 32.8608 -80.3256 32° Northeast 376 433 31,000  Level Jacksonville Center
Sat 03:01:59 PM 32.9472 -80.2636 31° Northeast 386 444 31,000  Level Jacksonville Center
Sat 03:02:59 PM 33.0356 -80.1967 32° Northeast 392 451 31,000  Level Jacksonville Center
Sat 03:03:59 PM 33.1217 -80.1322 32° Northeast 380 437 31,000 -50 Level Jacksonville Center
Sat 03:04:59 PM 33.2142 -80.0622 32° Northeast 375 432 30,900  Descending Jacksonville Center
Sat 03:05:59 PM 33.2983 -80.0000 32° Northeast 370 426 31,000 50 Climbing Jacksonville Center
Sat 03:06:59 PM 33.3844 -79.9350 32° Northeast 365 420 31,000  Level Jacksonville Center
Sat 03:07:59 PM 33.4706 -79.8697 32° Northeast 359 413 31,000  Level Jacksonville Center
Sat 03:08:59 PM 33.5544 -79.8072 32° Northeast 359 413 31,000 -50 Level Jacksonville Center
Sat 03:09:59 PM 33.6406 -79.7417 32° Northeast 359 413 30,900  Descending Jacksonville Center
Sat 03:10:59 PM 33.7244 -79.6789 32° Northeast 359 413 31,000 50 Climbing Jacksonville Center
Sat 03:11:59 PM 33.8083 -79.6158 32° Northeast 359 413 31,000  Level Jacksonville Center
Sat 03:12:59 PM 33.8922 -79.5500 33° Northeast 359 413 31,000  Level Jacksonville Center
Sat 03:13:59 PM 33.9803 -79.4842 32° Northeast 359 413 31,000  Level Jacksonville Center
Sat 03:16:26 PM 34.1867 -79.3250 33° Northeast 353 406 31,000  Level Washington Center
Sat 03:17:26 PM 34.2742 -79.2586 32° Northeast 353 406 31,000  Level Washington Center
Sat 03:18:24 PM 34.3633 -79.2072 25° Northeast 353 406 31,000  Level Washington Center
Sat 03:19:25 PM 34.4525 -79.1583 24° Northeast 353 406 31,000  Level Washington Center
Sat 03:20:25 PM 34.5417 -79.1042 27° Northeast 348 400 31,000  Level Washington Center
Sat 03:21:26 PM 34.6308 -79.0525 25° Northeast 348 400 31,000  Level Washington Center
Sat 03:22:24 PM 34.7200 -79.0006 26° Northeast 348 400 31,000  Level Washington Center
Sat 03:23:25 PM 34.8092 -78.9486 26° Northeast 348 400 31,000  Level Washington Center
Sat 03:24:25 PM 34.9003 -78.8967 25° Northeast 348 400 31,000  Level Washington Center
Sat 03:25:26 PM 34.9894 -78.8447 26° Northeast 348 400 31,000  Level Washington Center
Sat 03:26:26 PM 35.0806 -78.7925 25° Northeast 348 400 31,000  Level Washington Center
Sat 03:27:26 PM 35.1675 -78.7400 26° Northeast 348 400 31,000  Level Washington Center
Sat 03:28:24 PM 35.2564 -78.6875 26° Northeast 343 395 31,000  Level Washington Center
Sat 03:29:25 PM 35.3475 -78.6350 25° Northeast 349 402 31,000  Level Washington Center
Sat 03:30:26 PM 35.4364 -78.5797 27° Northeast 349 402 31,000  Level Washington Center
Sat 03:31:26 PM 35.5275 -78.5294 24° Northeast 349 402 31,000  Level Washington Center
Sat 03:32:24 PM 35.6144 -78.4739 27° Northeast 365 420 31,000  Level Washington Center
Sat 03:33:25 PM 35.7011 -78.4261 24° Northeast 365 420 31,000  Level Washington Center
Sat 03:34:25 PM 35.7878 -78.3753 25° Northeast 349 402 31,000  Level Washington Center
Sat 03:35:26 PM 35.8767 -78.3219 26° Northeast 349 402 31,000  Level Washington Center
Sat 03:36:25 PM 35.9656 -78.2686 26° Northeast 344 396 31,000  Level Washington Center
Sat 03:37:27 PM 36.0544 -78.2153 26° Northeast 344 396 31,000  Level Washington Center
Sat 03:38:24 PM 36.1431 -78.1614 26° Northeast 344 396 31,000 -821 Level Washington Center
Sat 03:39:24 PM 36.2383 -78.1028 26° Northeast 354 407 29,400 -1,686 Descending Washington Center
Sat 03:40:25 PM 36.3397 -78.0417 26° Northeast 377 434 27,600 -1,180 Descending Washington Center
Sat 03:41:26 PM 36.4369 -77.9775 28° Northeast 390 449 27,000 -298 Descending Washington Center
Sat 03:42:26 PM 36.5361 -77.9211 25° Northeast 390 449 27,000  Level Washington Center
Sat 03:43:24 PM 36.6353 -77.8594 27° Northeast 390 449 27,000  Level Washington Center
Sat 03:44:24 PM 36.7325 -77.8000 26° Northeast 390 449 27,000  Level Washington Center
Sat 03:45:25 PM 36.8336 -77.7381 26° Northeast 390 449 27,000  Level Washington Center
Sat 03:46:25 PM 36.9369 -77.6733 27° Northeast 395 455 27,000 -99 Level Washington Center
Sat 03:47:26 PM 37.0383 -77.6136 25° Northeast 395 455 26,800 -843 Descending Washington Center
Sat 03:48:26 PM 37.1431 -77.5772 15° North 395 455 25,300 -1,525 Descending Washington Center
Sat 03:49:24 PM 37.2481 -77.5383 16° North 390 449 23,800 -1,462 Descending Washington Center
Sat 03:50:25 PM 37.3508 -77.5017 16° North 384 442 22,400 -885 Descending Washington Center
Sat 03:51:26 PM 37.4536 -77.4650 16° North 384 442 22,000 -198 Descending Washington Center
Sat 03:52:26 PM 37.5586 -77.4283 15° North 384 442 22,000  Level Washington Center
Sat 03:53:26 PM 37.6633 -77.3889 17° North 384 442 22,000 -1,017 Level Washington Center
Sat 03:54:24 PM 37.7661 -77.3519 16° North 384 442 20,000 -2,017 Descending Washington Center
Sat 03:55:25 PM 37.8628 -77.3147 17° North 379 436 18,000 -1,884 Descending Washington Center
Sat 03:56:25 PM 37.9592 -77.2800 16° North 368 423 16,200 -1,950 Descending Washington Center
Sat 03:57:25 PM 38.0639 -77.2428 16° North 358 412 14,100 -1,884 Descending Washington Center
Sat 03:58:26 PM 38.1603 -77.2106 15° North 358 412 12,400 -1,686 Descending Washington Center
Sat 03:59:26 PM 38.2419 -77.1725 20° North 352 405 10,700 -1,627 Descending Washington Center
Sat 04:00:24 PM 38.3319 -77.1508 11° North 329 379 9,200 -1,525 Descending Washington Center
Sat 04:01:24 PM 38.4072 -77.1311 12° North 290 334 7,700 -1,537 Descending Washington Center
Sat 04:02:25 PM 38.4806 -77.1086 14° North 273 314 6,100 -1,537 Descending Washington Center
Sat 04:03:25 PM 38.5539 -77.0889 12° North 268 308 4,600 -1,300 Descending Washington Center
Sat 04:04:25 PM 38.6250 -77.0664 14° North 268 308 3,500 -1,172 Descending Washington Center
Sat 04:04:52 PM 38.6667 -77.0500 17° North 256 295 2,900 -1,333 Descending Potomac TRACON

Login

Don't have an account? Register now (free) for customized features, flight alerts, and more!